Freeville, NY

11:00 AM EDT on March 28, 2015 (GMT -0400)
Binghamton Regional-Link | | Change Station
CLOSE
Current Station
Airport
Location: Binghamton,
Elevation: 1634 ft
Nearby Weather Stations

Elev 1634 ft 42.21 °N, 75.98 °W | Updated 7 minutes ago

Overcast
Overcast
19 °F
Feels Like 6 °F
N
14
Wind Variable Wind from NNW
Gusts 24 mph

Today
High -- | Low -- °F
--% Chance of Precip.
Yesterday
High -- | Low -- °F
Precip. -- in
6:55 AM 7:26 PM
Waxing Gibbous, 63% visible
Pressure 29.99 in
Visibility 10.0 miles
Clouds Mostly Cloudy 2400 ft
Mostly Cloudy 3500 ft
Overcast 4700 ft
Windchill 6 °F
Dew Point 10 °F
Humidity 68%
Rainfall 0.00 in
Snow Depth Not available.
UV 2 out of 12
Pollen 1.00 out of 12
Air Quality Not available.
Flu Activity Not available.
METAR KBGM 281453Z 33012G21KT 10SM BKN024 BKN035 OVC047 M07/M12 A2991 RMK AO2 SLP153 T10721122 53014

More Conditions Fewer Conditions

Pressure 29.99 in
Visibility 10.0 miles
Clouds Mostly Cloudy 2400 ft
Mostly Cloudy 3500 ft
Overcast 4700 ft
Windchill 6 °F
Dew Point 10 °F
Humidity 68%
Rainfall 0.00 in
Snow Depth Not available.
UV 2 out of 12
Pollen 1.00 out of 12
Air Quality Not available.
Flu Activity Not available.
METAR KBGM 281453Z 33012G21KT 10SM BKN024 BKN035 OVC047 M07/M12 A2991 RMK AO2 SLP153 T10721122 53014

More Conditions Fewer Conditions

10-Day Weather Forecast

Almanac

Astronomy

Mar. 28, 2015 Rise Set
Actual Time
Civil Twilight
Nautical Twilight
Astronomical Twilight
Moon
Length of Visible Light
Length of Day
Tomorrow will be .
, % of the Moon is Illuminated

Today's Extremes

State Highs State Lows

Community

WunderPhotos

Upload Photos

1,809,008 photos uploaded!

WunderBlogs® & News

Nearby

Air Quality

  Air Quality AQ Index Pollutant
Not available.

Snow Depth

Station Depth Elevation

Earthquake Activity

City Distance Mag. Time & Date
Minimum magnitude displayed is 2.5.

Coastal Water Temperatures

Place Temperature

Stations

Nearby Weather Stations

Station Location Temp. Windchill Dew Point Humidity Wind Precip. Elev Updated Type